Time;durP1;ratioP1;P1;durP2;ratioP2;P2;SDS_P1;SDS_P2;PMS_P1;PMS_P2;Temp;Humidity;BMP_temperature;BMP_pressure;BME280_temperature;BME280_humidity;BME280_pressure;Samples;Min_cycle;Max_cycle;Signal;HPM_P1;HPM_P2
2023/05/12 00:00:06;;;;;;;14.00;7.40;;;;;;;8.76;62.73;99212.27;271090;1268;22543;-83
2023/05/12 01:10:25;;;;;;;12.60;7.00;;;;;;;8.11;66.81;99239.63;273490;1278;22702;-83
2023/05/12 01:25:10;;;;;;;19.30;7.20;;;;;;;7.89;67.71;99243.77;265943;1277;10144658;-83
2023/05/12 01:39:06;;;;;;;14.30;6.20;;;;;;;7.63;68.22;99243.70;273843;1276;22656;-83
2023/05/12 02:24:34;;;;;;;12.50;6.90;;;;;;;7.28;70.41;99249.20;271483;1271;23791;-84
2023/05/12 02:47:31;;;;;;;16.50;7.70;;;;;;;7.08;71.14;99250.27;272941;1278;22332;-83
2023/05/12 03:19:04;;;;;;;10.80;6.20;;;;;;;6.87;72.19;99245.14;272942;1280;22249;-84
2023/05/12 03:25:31;;;;;;;14.40;7.20;;;;;;;6.86;72.61;99254.67;270808;1275;22324;-86
2023/05/12 05:06:59;;;;;;;13.30;7.20;;;;;;;8.38;74.87;99300.20;273762;1276;22660;-85
2023/05/12 05:29:43;;;;;;;13.00;7.10;;;;;;;9.36;74.72;99307.33;271179;1269;25283;-83
2023/05/12 05:43:37;;;;;;;11.30;6.40;;;;;;;9.81;74.39;99316.04;270937;1273;23163;-85
2023/05/12 05:57:47;;;;;;;13.90;6.30;;;;;;;10.05;74.03;99323.29;273223;1276;25350;-85
2023/05/12 06:03:56;;;;;;;10.00;6.60;;;;;;;10.19;73.86;99326.85;269969;1274;22532;-85
2023/05/12 06:10:12;;;;;;;14.20;7.50;;;;;;;10.41;73.77;99326.38;269808;1269;22592;-84
2023/05/12 06:16:38;;;;;;;11.10;6.50;;;;;;;10.58;73.45;99328.47;272192;1270;22199;-86
2023/05/12 06:23:23;;;;;;;11.20;6.20;;;;;;;10.81;73.69;99330.17;273454;1277;22516;-82
2023/05/12 06:30:24;;;;;;;10.40;6.20;;;;;;;11.28;73.85;99327.70;273697;1276;22909;-84
2023/05/12 06:45:13;;;;;;;14.50;6.70;;;;;;;11.99;72.72;99325.39;272518;1269;22618;-83
2023/05/12 07:15:24;;;;;;;10.10;5.70;;;;;;;13.17;71.34;99327.33;271539;1275;22419;-83
2023/05/12 07:21:53;;;;;;;12.60;6.20;;;;;;;13.46;70.62;99328.59;272937;1275;22288;-84
2023/05/12 07:44:07;;;;;;;8.20;4.50;;;;;;;15.30;68.90;99320.10;273047;1280;22271;-84
2023/05/12 07:58:42;;;;;;;9.50;4.40;;;;;;;16.49;65.56;99312.52;273860;1276;23038;-85
2023/05/12 08:27:53;;;;;;;7.00;2.70;;;;;;;17.87;59.53;99310.48;273050;1276;22212;-86
2023/05/12 08:33:55;;;;;;;7.60;2.50;;;;;;;18.11;58.35;99305.23;272408;1270;22570;-84
2023/05/12 09:04:18;;;;;;;5.10;2.50;;;;;;;18.56;53.12;99302.98;271139;1272;22614;-84
2023/05/12 09:11:14;;;;;;;2.70;2.20;;;;;;;19.01;52.29;99300.33;272234;1257;23490;-85
2023/05/12 09:34:29;;;;;;;9.00;2.40;;;;;;;20.32;47.95;99293.52;272411;1283;22256;-85
2023/05/12 09:40:56;;;;;;;3.60;1.70;;;;;;;20.41;45.31;99293.64;272105;1280;22230;-85
2023/05/12 09:47:25;;;;;;;5.40;2.00;;;;;;;20.60;44.97;99291.19;272384;1280;22363;-85
2023/05/12 09:54:17;;;;;;;4.30;2.00;;;;;;;20.91;44.22;99295.10;273208;1276;22754;-83
2023/05/12 10:08:16;;;;;;;4.50;2.10;;;;;;;20.59;41.09;99298.38;273674;1276;23364;-85
2023/05/12 10:46:25;;;;;;;3.10;1.60;;;;;;;20.56;37.27;99295.23;273369;1277;22553;-86
2023/05/12 11:15:33;;;;;;;3.90;1.60;;;;;;;20.01;36.67;99296.20;272302;1264;22190;-82
2023/05/12 11:38:06;;;;;;;3.00;1.40;;;;;;;20.77;35.08;99291.14;271932;1274;22215;-84
2023/05/12 12:07:36;;;;;;;4.50;1.70;;;;;;;21.24;33.50;99290.34;271971;1272;22564;-84
2023/05/12 12:13:59;;;;;;;4.70;2.00;;;;;;;20.63;34.04;99283.16;271477;1256;23963;-85
2023/05/12 12:21:47;;;;;;;5.10;1.90;;;;;;;20.61;34.40;99276.77;270879;1269;22648;-85
2023/05/12 12:35:26;;;;;;;3.70;1.80;;;;;;;20.22;34.40;99276.54;272617;1263;25338;-85
2023/05/12 12:41:31;;;;;;;3.90;1.80;;;;;;;20.04;34.68;99280.65;270640;1269;25432;-84
2023/05/12 12:48:18;;;;;;;4.00;1.90;;;;;;;20.44;34.95;99279.82;270877;1270;22204;-84
2023/05/12 12:54:45;;;;;;;3.70;1.80;;;;;;;20.98;35.40;99278.22;272079;1273;22537;-83
2023/05/12 13:01:10;;;;;;;3.00;1.80;;;;;;;21.14;35.13;99279.41;273548;1269;22325;-84
2023/05/12 13:07:12;;;;;;;6.00;1.80;;;;;;;20.81;34.86;99285.81;272171;1272;23020;-83
2023/05/12 13:13:13;;;;;;;4.00;1.80;;;;;;;20.15;35.11;99280.65;273645;1270;22176;-83
2023/05/12 13:19:15;;;;;;;8.80;1.90;;;;;;;19.91;35.28;99275.92;272574;1272;22421;-84
2023/05/12 13:25:16;;;;;;;4.80;2.20;;;;;;;20.03;35.39;99276.53;263679;1270;10174589;-84
2023/05/12 13:31:17;;;;;;;5.40;2.10;;;;;;;20.29;35.80;99269.93;272902;1269;22214;-84
2023/05/12 13:37:21;;;;;;;2.60;1.80;;;;;;;20.46;35.92;99268.27;272094;1272;23478;-84
2023/05/12 13:43:22;;;;;;;3.70;1.90;;;;;;;20.41;35.50;99271.48;270953;1262;22526;-85
2023/05/12 13:50:14;;;;;;;4.20;1.90;;;;;;;20.53;36.04;99260.08;270664;1269;23918;-84
2023/05/12 13:56:45;;;;;;;4.10;1.90;;;;;;;20.67;36.07;99260.98;272523;1259;22281;-84
2023/05/12 14:02:46;;;;;;;6.00;1.90;;;;;;;20.15;36.15;99262.67;273838;1265;22341;-83
2023/05/12 14:08:47;;;;;;;2.70;1.90;;;;;;;19.75;36.32;99258.60;273698;1269;22131;-84
2023/05/12 14:14:48;;;;;;;4.70;1.90;;;;;;;19.65;36.48;99258.02;271338;1274;24272;-85
2023/05/12 14:21:32;;;;;;;3.70;2.40;;;;;;;19.46;36.27;99261.41;270934;1273;23371;-84
2023/05/12 14:27:55;;;;;;;3.90;1.70;;;;;;;19.24;36.27;99258.68;270611;1269;24278;-83
2023/05/12 14:33:57;;;;;;;7.60;1.80;;;;;;;19.29;36.17;99259.30;271022;1272;22661;-83
2023/05/12 14:39:58;;;;;;;4.20;1.60;;;;;;;19.41;35.72;99259.79;270712;1269;23768;-85
2023/05/12 14:46:00;;;;;;;3.70;2.00;;;;;;;19.40;35.23;99265.53;273642;1259;22261;-83
2023/05/12 14:52:09;;;;;;;4.80;2.00;;;;;;;19.45;35.23;99263.92;273667;1272;22376;-83
2023/05/12 14:58:56;;;;;;;6.80;1.70;;;;;;;19.49;35.08;99269.55;273409;1275;23299;-83
2023/05/12 15:05:08;;;;;;;6.30;2.00;;;;;;;19.22;34.64;99271.64;271592;1272;22514;-84
2023/05/12 15:12:12;;;;;;;6.80;2.00;;;;;;;18.95;34.59;99268.27;270769;1269;22563;-83
2023/05/12 15:18:16;;;;;;;3.20;1.60;;;;;;;18.70;34.83;99264.96;273276;1263;22402;-84
2023/05/12 15:24:46;;;;;;;5.40;1.80;;;;;;;18.54;35.23;99265.55;273743;1272;22190;-83
2023/05/12 15:30:57;;;;;;;5.00;1.70;;;;;;;18.53;35.25;99261.94;273685;1256;22189;-84
2023/05/12 15:36:58;;;;;;;6.50;1.90;;;;;;;18.53;35.60;99261.86;273476;1270;22226;-83
2023/05/12 15:42:59;;;;;;;3.30;1.80;;;;;;;18.53;35.98;99261.08;273489;1275;22329;-83
2023/05/12 15:49:00;;;;;;;7.30;2.10;;;;;;;18.48;35.96;99268.12;273580;1276;23484;-84
2023/05/12 15:55:03;;;;;;;5.20;1.80;;;;;;;18.36;36.11;99273.11;272923;1269;23415;-83
2023/05/12 16:01:05;;;;;;;2.90;1.80;;;;;;;18.23;36.18;99269.36;272428;1272;23793;-83
2023/05/12 16:07:06;;;;;;;6.90;1.60;;;;;;;18.10;36.32;99275.24;270584;1269;22199;-84
2023/05/12 16:13:07;;;;;;;5.90;2.30;;;;;;;17.96;36.57;99278.54;272922;1273;22986;-83
2023/05/12 16:19:10;;;;;;;2.90;1.90;;;;;;;17.95;36.97;99272.39;273357;1270;22343;-85
2023/05/12 16:25:11;;;;;;;8.20;2.30;;;;;;;18.04;37.28;99276.38;273118;1275;22546;-83
2023/05/12 16:31:55;;;;;;;6.30;1.70;;;;;;;18.02;37.06;99286.36;270132;1267;23075;-83
2023/05/12 16:37:58;;;;;;;7.80;2.20;;;;;;;17.89;37.11;99292.65;270434;1275;22345;-83
2023/05/12 16:44:00;;;;;;;4.90;2.00;;;;;;;17.76;37.14;99295.59;272416;1274;22272;-83
2023/05/12 16:50:26;;;;;;;5.80;1.70;;;;;;;17.69;37.47;99297.09;273701;1273;23034;-84
2023/05/12 16:56:27;;;;;;;6.00;2.30;;;;;;;17.58;37.61;99301.82;273589;1271;22203;-83
2023/05/12 17:02:28;;;;;;;6.20;2.60;;;;;;;17.48;37.57;99303.29;273586;1260;22779;-83
2023/05/12 17:08:30;;;;;;;6.70;2.10;;;;;;;17.37;37.61;99305.85;273513;1270;22383;-84
2023/05/12 17:14:57;;;;;;;3.70;2.10;;;;;;;17.23;37.85;99310.90;273693;1270;22382;-84
2023/05/12 17:21:44;;;;;;;6.20;2.20;;;;;;;17.09;37.98;99311.83;273733;1270;23435;-84
2023/05/12 17:28:06;;;;;;;5.00;2.20;;;;;;;16.94;38.16;99313.40;270112;1270;22757;-84
2023/05/12 17:34:10;;;;;;;6.80;2.50;;;;;;;16.81;38.39;99320.38;270533;1270;24240;-84
2023/05/12 17:40:16;;;;;;;6.40;2.00;;;;;;;16.68;38.52;99320.42;270773;1269;22554;-83
2023/05/12 17:46:17;;;;;;;6.20;2.40;;;;;;;16.54;38.82;99324.25;270892;1270;24216;-84
2023/05/12 17:52:39;;;;;;;7.20;2.40;;;;;;;16.39;39.18;99325.27;270985;1257;22546;-83
2023/05/12 17:58:57;;;;;;;7.20;2.50;;;;;;;16.23;39.58;99335.48;272166;1270;22309;-84
2023/05/12 18:05:04;;;;;;;6.50;2.40;;;;;;;16.08;39.96;99339.20;273738;1270;22193;-84
2023/05/12 18:11:30;;;;;;;;;;;;;;;15.93;40.31;99343.62;273614;1260;22413;-83
2023/05/12 18:18:58;;;;;;;8.70;2.90;;;;;;;15.77;40.73;99348.66;273572;1270;22308;-84
2023/05/12 18:25:00;;;;;;;7.10;3.40;;;;;;;15.59;41.21;99351.96;273548;1273;22193;-84
2023/05/12 18:31:02;;;;;;;10.10;3.50;;;;;;;15.45;41.54;99355.08;271722;1269;22553;-84
2023/05/12 18:37:24;;;;;;;10.80;4.70;;;;;;;15.31;41.85;99361.23;271272;1269;22397;-84
2023/05/12 18:43:25;;;;;;;7.50;4.30;;;;;;;15.17;42.37;99369.91;272307;1269;22513;-84
2023/05/12 18:49:49;;;;;;;9.90;4.70;;;;;;;15.01;42.55;99377.49;270901;1274;22360;-85
2023/05/12 18:56:11;;;;;;;11.90;4.70;;;;;;;14.83;43.08;99380.80;271972;1269;22531;-83
2023/05/12 19:02:11;;;;;;;10.10;4.60;;;;;;;14.65;43.39;99380.02;272348;1270;24299;-86
2023/05/12 19:08:13;;;;;;;8.70;3.40;;;;;;;14.49;43.68;99386.84;271973;1269;23563;-83
2023/05/12 19:14:58;;;;;;;6.50;3.90;;;;;;;14.39;43.98;99392.17;273393;1270;22633;-83
2023/05/12 19:21:55;;;;;;;8.90;3.80;;;;;;;14.27;44.33;99393.71;273427;1270;23117;-84
2023/05/12 19:28:05;;;;;;;14.70;7.90;;;;;;;14.15;44.64;99399.01;273499;1264;22302;-83
2023/05/12 19:34:10;;;;;;;18.40;5.80;;;;;;;14.04;45.00;99402.11;273370;1269;22339;-83
2023/05/12 19:40:11;;;;;;;14.00;5.10;;;;;;;13.96;45.51;99407.59;273421;1257;23533;-85
2023/05/12 19:46:13;;;;;;;15.50;5.70;;;;;;;13.89;45.73;99414.48;265802;1270;10001868;-83
2023/05/12 19:52:14;;;;;;;13.70;4.80;;;;;;;13.78;46.13;99416.39;273457;1260;22197;-84
2023/05/12 19:58:16;;;;;;;9.40;4.40;;;;;;;13.67;46.61;99413.89;272232;1269;22246;-84
2023/05/12 20:04:19;;;;;;;12.50;4.30;;;;;;;13.55;46.82;99417.91;273381;1266;22380;-84
2023/05/12 20:10:20;;;;;;;7.50;4.20;;;;;;;13.45;47.29;99418.80;272231;1269;22550;-83
2023/05/12 20:16:28;;;;;;;7.70;4.00;;;;;;;13.35;47.58;99422.27;273215;1269;22223;-84
2023/05/12 20:22:54;;;;;;;12.50;4.40;;;;;;;13.24;47.92;99418.34;273517;1269;22212;-82
2023/05/12 20:28:56;;;;;;;13.90;5.20;;;;;;;13.12;48.27;99419.89;271591;1269;24393;-83
2023/05/12 20:34:57;;;;;;;11.90;4.40;;;;;;;13.01;48.60;99416.50;270881;1270;22522;-85
2023/05/12 20:41:25;;;;;;;7.60;4.50;;;;;;;12.91;49.02;99411.06;272769;1269;22581;-84
2023/05/12 20:47:26;;;;;;;;;;;;;;;12.79;49.34;99409.46;273121;1269;23714;-84
2023/05/12 20:53:42;;;;;;;9.80;4.70;;;;;;;12.70;49.66;99410.88;270694;1256;22457;-84
2023/05/12 20:59:44;;;;;;;8.40;4.80;;;;;;;12.59;50.03;99411.48;271433;1269;22375;-85
2023/05/12 21:06:06;;;;;;;7.20;4.70;;;;;;;12.47;50.42;99412.55;273395;1259;22333;-84
2023/05/12 21:12:08;;;;;;;13.60;5.40;;;;;;;12.37;50.71;99420.77;270584;1263;24386;-83
2023/05/12 21:18:09;;;;;;;10.50;5.10;;;;;;;12.29;51.17;99425.77;270101;1266;24239;-84
2023/05/12 21:24:54;;;;;;;10.50;5.40;;;;;;;12.21;51.49;99423.88;270164;1269;23397;-83
2023/05/12 21:31:17;;;;;;;8.40;4.80;;;;;;;12.11;51.82;99424.61;270170;1269;22535;-83
2023/05/12 21:38:09;;;;;;;7.70;5.20;;;;;;;12.01;52.28;99422.77;270739;1253;22563;-83
2023/05/12 21:44:10;;;;;;;11.80;5.10;;;;;;;11.88;52.83;99424.03;272998;1269;23847;-85
2023/05/12 21:50:11;;;;;;;10.70;5.90;;;;;;;11.75;53.01;99427.92;270303;1266;26204;-83
2023/05/12 21:56:34;;;;;;;28.40;12.30;;;;;;;11.56;53.22;99432.58;271780;1259;23818;-84
2023/05/12 22:03:20;;;;;;;13.90;7.50;;;;;;;11.37;54.03;99436.92;271822;1269;22654;-85
2023/05/12 22:10:05;;;;;;;14.30;6.40;;;;;;;11.25;54.81;99435.57;272972;1269;23019;-84
2023/05/12 22:16:10;;;;;;;9.50;6.00;;;;;;;11.12;55.53;99439.50;273658;1269;23152;-84
2023/05/12 22:22:11;;;;;;;13.00;6.80;;;;;;;11.00;55.90;99442.36;273733;1269;22413;-84
2023/05/12 22:28:12;;;;;;;12.20;6.60;;;;;;;10.89;56.29;99439.05;273624;1269;22261;-84
2023/05/12 22:34:13;;;;;;;11.90;6.00;;;;;;;10.80;56.70;99441.49;272533;1259;22576;-84
2023/05/12 22:40:19;;;;;;;10.20;5.30;;;;;;;10.77;57.01;99440.26;271216;1269;22319;-84
2023/05/12 22:47:04;;;;;;;9.40;6.10;;;;;;;10.74;57.44;99438.89;273696;1257;22363;-84
2023/05/12 22:54:15;;;;;;;10.00;6.30;;;;;;;10.72;57.98;99439.47;273684;1269;22977;-85
2023/05/12 23:00:18;;;;;;;8.70;5.90;;;;;;;10.53;59.30;99463.53;271854;1260;22546;-84
2023/05/12 23:06:19;;;;;;;11.90;6.40;;;;;;;10.36;60.25;99469.61;269871;1269;23415;-83
2023/05/12 23:12:41;;;;;;;14.90;6.80;;;;;;;10.35;60.87;99471.33;270172;1266;22398;-84
2023/05/12 23:18:42;;;;;;;9.00;5.60;;;;;;;10.38;60.95;99471.05;271437;1269;22274;-84
2023/05/12 23:25:04;;;;;;;12.60;6.70;;;;;;;10.33;60.87;99464.45;273143;1263;22399;-84
2023/05/12 23:31:06;;;;;;;9.80;6.30;;;;;;;10.17;61.69;99461.27;272472;1270;22938;-85
2023/05/12 23:37:07;;;;;;;10.70;6.10;;;;;;;9.99;62.18;99457.90;271063;1269;22335;-85
2023/05/12 23:43:08;;;;;;;9.40;6.10;;;;;;;9.78;62.70;99453.38;270056;1269;22539;-84
2023/05/12 23:49:30;;;;;;;10.70;6.90;;;;;;;9.58;62.92;99456.55;271141;1269;22332;-83
2023/05/12 23:55:31;;;;;;;14.40;6.90;;;;;;;9.31;64.01;99455.20;273415;1269;22554;-84
